createdAt,value
2022-12-26T00:01:06.116Z,87.98
2022-12-26T00:03:33.994Z,87.58
2022-12-26T00:06:03.212Z,87.72
2022-12-26T00:08:31.065Z,88.02
2022-12-26T00:10:58.980Z,87.93
2022-12-26T00:13:38.570Z,87.97
2022-12-26T00:16:10.422Z,87.91
2022-12-26T00:18:38.699Z,88.10
2022-12-26T00:21:08.254Z,87.71
2022-12-26T00:23:37.114Z,87.66
2022-12-26T00:26:06.267Z,87.87
2022-12-26T00:28:34.415Z,87.66
2022-12-26T00:31:05.492Z,87.83
2022-12-26T00:33:34.256Z,87.99
2022-12-26T00:36:03.563Z,87.85
2022-12-26T00:38:32.857Z,87.62
2022-12-26T00:41:01.587Z,87.71
2022-12-26T00:43:29.432Z,87.83
2022-12-26T00:45:57.883Z,87.70
2022-12-26T00:48:25.797Z,87.98
2022-12-26T00:50:53.785Z,87.78
2022-12-26T00:53:21.765Z,88.03
2022-12-26T00:55:51.394Z,87.98
2022-12-26T00:58:19.269Z,87.87
2022-12-26T01:00:47.148Z,88.07
2022-12-26T01:03:16.018Z,87.72
2022-12-26T01:05:44.834Z,87.96
2022-12-26T01:08:20.165Z,88.04
2022-12-26T01:10:53.574Z,88.11
2022-12-26T01:13:21.384Z,87.88
2022-12-26T01:15:50.675Z,87.90
2022-12-26T01:18:18.761Z,87.90
2022-12-26T01:20:46.807Z,87.99
2022-12-26T01:23:14.755Z,87.98
2022-12-26T01:26:17.014Z,88.09
2022-12-26T01:28:31.741Z,88.10
2022-12-26T01:31:02.994Z,87.88
2022-12-26T01:33:31.107Z,87.73
2022-12-26T01:35:59.207Z,88.11
2022-12-26T01:38:27.544Z,88.01
2022-12-26T01:41:15.584Z,87.62
2022-12-26T01:43:51.376Z,88.05
2022-12-26T01:46:22.933Z,87.93
2022-12-26T01:48:52.484Z,87.88
2022-12-26T01:51:22.942Z,88.10
2022-12-26T01:53:53.850Z,88.02
2022-12-26T01:56:24.902Z,87.93
2022-12-26T01:58:57.349Z,88.16
2022-12-26T02:01:30.359Z,88.04
2022-12-26T02:04:18.370Z,87.88
2022-12-26T02:06:46.252Z,87.92
2022-12-26T02:09:14.583Z,88.17
2022-12-26T02:11:45.831Z,88.01
2022-12-26T02:14:16.149Z,87.91
2022-12-26T02:16:44.422Z,88.10
2022-12-26T02:19:27.199Z,87.79
2022-12-26T02:22:21.352Z,87.87
2022-12-26T02:25:11.590Z,88.11
2022-12-26T02:27:58.255Z,87.94
2022-12-26T02:30:37.642Z,87.94
2022-12-26T02:33:34.309Z,87.93
2022-12-26T02:36:22.891Z,87.89
2022-12-26T02:39:42.619Z,88.10
2022-12-26T02:42:01.034Z,87.94
2022-12-26T02:44:56.933Z,87.87
2022-12-26T02:47:34.663Z,88.04
2022-12-26T02:50:27.528Z,87.68
2022-12-26T02:53:23.289Z,87.87
2022-12-26T02:56:12.016Z,88.06
2022-12-26T02:59:01.885Z,87.79
2022-12-26T03:02:07.724Z,88.03
2022-12-26T03:04:57.706Z,88.12
2022-12-26T03:07:47.245Z,87.89
2022-12-26T03:10:37.270Z,88.03
2022-12-26T03:13:14.498Z,87.82
2022-12-26T03:16:04.195Z,88.08
2022-12-26T03:18:57.731Z,87.81
2022-12-26T03:21:27.535Z,88.03
2022-12-26T03:23:57.806Z,87.96
2022-12-26T03:26:39.943Z,87.96
2022-12-26T03:29:27.925Z,88.05
2022-12-26T03:31:55.907Z,88.07
2022-12-26T03:34:24.192Z,87.98
2022-12-26T03:37:23.490Z,88.10
2022-12-26T03:40:22.979Z,87.99
2022-12-26T03:43:16.873Z,87.89
2022-12-26T03:46:09.608Z,87.82
2022-12-26T03:49:03.888Z,88.05
2022-12-26T03:51:53.968Z,88.01
2022-12-26T03:54:45.838Z,88.01
2022-12-26T03:57:31.752Z,88.23
2022-12-26T04:00:23.562Z,87.92
2022-12-26T04:03:12.629Z,88.05
2022-12-26T04:06:04.136Z,87.72
2022-12-26T04:08:55.814Z,88.01
2022-12-26T04:11:42.541Z,88.20
2022-12-26T04:14:40.276Z,87.99
2022-12-26T04:17:33.483Z,87.87
2022-12-26T04:20:10.020Z,87.98
2022-12-26T04:23:05.238Z,88.02
2022-12-26T04:25:56.216Z,87.93
2022-12-26T04:28:43.072Z,88.14
2022-12-26T04:31:33.380Z,87.78
2022-12-26T04:34:21.775Z,88.01
2022-12-26T04:37:14.407Z,88.05
2022-12-26T04:40:04.796Z,88.02
2022-12-26T04:42:52.325Z,88.04
2022-12-26T04:45:22.711Z,88.00
2022-12-26T04:48:05.711Z,88.02
2022-12-26T04:50:33.499Z,88.06
2022-12-26T04:53:01.442Z,88.07
2022-12-26T04:55:30.892Z,87.96
2022-12-26T04:57:59.311Z,88.24
2022-12-26T05:00:29.661Z,88.18
2022-12-26T05:03:18.970Z,87.96
2022-12-26T05:06:08.333Z,88.01
2022-12-26T05:08:56.708Z,88.04
2022-12-26T05:11:25.254Z,87.99
2022-12-26T05:13:54.129Z,88.01
2022-12-26T05:16:41.573Z,87.90
2022-12-26T05:19:30.307Z,88.10
2022-12-26T05:22:18.777Z,87.85
2022-12-26T05:25:04.596Z,88.07
2022-12-26T05:27:55.600Z,88.05
2022-12-26T05:30:24.208Z,88.24
2022-12-26T05:33:11.453Z,88.02
2022-12-26T05:35:40.214Z,88.17
2022-12-26T05:38:10.979Z,88.11
2022-12-26T05:40:38.834Z,88.15
2022-12-26T05:43:06.749Z,88.17
2022-12-26T05:45:34.459Z,87.98
2022-12-26T05:48:03.932Z,88.08
2022-12-26T05:50:31.854Z,88.04
2022-12-26T05:53:00.650Z,88.16
2022-12-26T05:55:28.503Z,88.30
2022-12-26T05:57:56.673Z,88.29
2022-12-26T06:00:24.404Z,88.12
2022-12-26T06:02:52.335Z,88.01
2022-12-26T06:05:21.570Z,88.10
2022-12-26T06:07:49.404Z,88.21
2022-12-26T06:10:17.350Z,88.14
2022-12-26T06:12:47.542Z,88.13
2022-12-26T06:15:15.362Z,88.14
2022-12-26T06:17:43.150Z,88.08
2022-12-26T06:20:11.481Z,88.07
2022-12-26T06:22:40.671Z,87.93
2022-12-26T06:25:09.834Z,88.07
2022-12-26T06:27:37.638Z,88.22
2022-12-26T06:30:06.277Z,88.14
2022-12-26T06:32:34.893Z,88.13
2022-12-26T06:35:03.148Z,88.14
2022-12-26T06:37:31.460Z,88.15
2022-12-26T06:40:00.706Z,88.10
2022-12-26T06:42:29.477Z,88.26
2022-12-26T06:44:57.241Z,87.97
2022-12-26T06:47:25.103Z,88.07
2022-12-26T06:49:52.878Z,88.31
2022-12-26T06:52:20.704Z,88.14
2022-12-26T06:54:48.453Z,88.20
2022-12-26T06:57:17.669Z,88.23
2022-12-26T06:59:45.476Z,88.10
2022-12-26T07:02:13.513Z,88.29
2022-12-26T07:04:41.415Z,88.15
2022-12-26T07:07:09.203Z,88.16
2022-12-26T07:09:37.063Z,88.08
2022-12-26T07:12:05.186Z,88.36
2022-12-26T07:14:35.636Z,87.99
2022-12-26T07:17:03.361Z,88.24
2022-12-26T07:19:31.101Z,88.02
2022-12-26T07:21:59.191Z,88.00
2022-12-26T07:24:26.956Z,88.10
2022-12-26T07:26:54.797Z,88.16
2022-12-26T07:29:22.946Z,87.92
2022-12-26T07:31:52.132Z,88.21
2022-12-26T07:34:19.889Z,88.24
2022-12-26T07:36:47.802Z,88.21
2022-12-26T07:39:15.576Z,88.17
2022-12-26T07:41:59.717Z,88.19
2022-12-26T07:44:28.932Z,88.26
2022-12-26T07:46:58.482Z,88.25
2022-12-26T07:49:27.111Z,88.26
2022-12-26T07:51:54.887Z,88.77
2022-12-26T07:54:23.023Z,88.21
2022-12-26T07:56:51.000Z,88.08
2022-12-26T07:59:19.127Z,88.13
2022-12-26T08:01:47.076Z,88.15
2022-12-26T08:04:16.327Z,88.14
2022-12-26T08:06:44.138Z,88.16
2022-12-26T08:09:15.924Z,88.11
2022-12-26T08:11:44.184Z,88.14
2022-12-26T08:14:13.307Z,88.12
2022-12-26T08:16:41.310Z,88.45
2022-12-26T08:19:09.162Z,88.25
2022-12-26T08:21:38.513Z,88.09
2022-12-26T08:24:06.627Z,87.96
2022-12-26T08:26:34.491Z,87.99
2022-12-26T08:29:02.523Z,88.30
2022-12-26T08:31:31.912Z,87.93
2022-12-26T08:33:59.784Z,88.39
2022-12-26T08:36:27.576Z,88.30
2022-12-26T08:38:57.218Z,88.12
2022-12-26T08:41:25.084Z,88.10
2022-12-26T08:46:41.806Z,88.35
2022-12-26T08:49:09.588Z,88.43
2022-12-26T08:51:37.420Z,88.11
2022-12-26T08:54:07.244Z,88.20
2022-12-26T08:56:34.983Z,88.13
2022-12-26T08:59:02.748Z,88.44
2022-12-26T09:01:32.397Z,88.19
2022-12-26T09:04:02.732Z,88.12
2022-12-26T09:06:33.017Z,88.22
2022-12-26T09:09:01.579Z,88.44
2022-12-26T09:11:31.712Z,88.45
2022-12-26T09:14:02.778Z,88.08
2022-12-26T09:16:37.397Z,88.15
2022-12-26T09:19:07.211Z,87.96
2022-12-26T09:21:34.967Z,88.17
2022-12-26T09:24:05.694Z,88.22
2022-12-26T09:26:35.439Z,88.00
2022-12-26T09:29:03.836Z,88.18
2022-12-26T09:31:33.959Z,88.35
2022-12-26T09:34:02.836Z,88.41
2022-12-26T09:36:32.817Z,88.23
2022-12-26T09:39:00.975Z,88.12
2022-12-26T09:41:54.403Z,88.32
2022-12-26T09:44:26.923Z,88.06
2022-12-26T09:47:04.892Z,88.32
2022-12-26T09:49:35.752Z,88.36
2022-12-26T09:52:10.896Z,88.52
2022-12-26T09:54:43.862Z,88.21
2022-12-26T09:57:19.735Z,88.06
2022-12-26T09:59:52.921Z,88.01
2022-12-26T10:02:23.976Z,88.04
2022-12-26T10:04:52.560Z,88.09
2022-12-26T10:07:29.243Z,88.38
2022-12-26T10:10:09.125Z,88.18
2022-12-26T10:12:50.102Z,88.18
2022-12-26T10:15:39.292Z,88.13
2022-12-26T10:18:18.058Z,88.60
2022-12-26T10:20:59.709Z,88.28
2022-12-26T10:23:33.645Z,88.10
2022-12-26T10:26:09.215Z,88.29
2022-12-26T10:28:42.950Z,88.34
2022-12-26T10:31:17.623Z,88.35
2022-12-26T10:33:51.206Z,88.42
2022-12-26T10:36:28.036Z,88.38
2022-12-26T10:38:59.632Z,88.28
2022-12-26T10:41:29.522Z,88.31
2022-12-26T10:43:58.673Z,88.56
2022-12-26T10:46:43.809Z,88.24
2022-12-26T10:49:13.199Z,88.29
2022-12-26T10:51:41.187Z,88.48
2022-12-26T10:54:15.873Z,88.18
2022-12-26T10:56:46.447Z,88.45
2022-12-26T10:59:19.409Z,87.98
2022-12-26T11:01:50.665Z,88.47
2022-12-26T11:04:44.614Z,88.08
2022-12-26T11:07:11.990Z,88.36
2022-12-26T11:09:42.570Z,88.27
2022-12-26T11:12:21.759Z,88.26
2022-12-26T11:14:58.013Z,88.37
2022-12-26T11:17:28.968Z,88.09
2022-12-26T11:20:25.513Z,88.33
2022-12-26T11:22:53.912Z,88.19
2022-12-26T11:25:24.636Z,88.42
2022-12-26T11:27:54.307Z,88.14
2022-12-26T11:30:30.342Z,87.97
2022-12-26T11:33:15.166Z,88.32
2022-12-26T11:35:55.951Z,88.48
2022-12-26T11:38:42.457Z,88.46
2022-12-26T11:41:36.479Z,88.29
2022-12-26T11:44:16.791Z,88.05
2022-12-26T11:46:49.847Z,88.37
2022-12-26T11:49:21.454Z,88.44
2022-12-26T11:51:55.628Z,88.31
2022-12-26T11:54:30.770Z,88.34
2022-12-26T11:57:20.259Z,88.43
2022-12-26T11:59:49.035Z,88.26
2022-12-26T12:02:23.935Z,88.41
2022-12-26T12:04:54.748Z,88.43
2022-12-26T12:07:43.668Z,88.26
2022-12-26T12:10:49.464Z,88.00
2022-12-26T12:13:27.149Z,88.39
2022-12-26T12:16:01.136Z,88.39
2022-12-26T12:18:46.907Z,88.30
2022-12-26T12:21:22.206Z,88.55
2022-12-26T12:24:28.533Z,88.38
2022-12-26T12:27:05.140Z,88.58
2022-12-26T12:30:04.380Z,88.27
2022-12-26T12:32:44.921Z,88.40
2022-12-26T12:35:27.915Z,88.38
2022-12-26T12:38:15.324Z,88.33
2022-12-26T12:40:51.307Z,88.35
2022-12-26T12:43:28.351Z,88.51
2022-12-26T12:46:05.834Z,88.60
2022-12-26T12:48:56.802Z,88.19
2022-12-26T12:51:34.387Z,88.41
2022-12-26T12:54:44.674Z,88.34
2022-12-26T12:57:21.083Z,88.28
2022-12-26T13:00:03.175Z,88.57
2022-12-26T13:02:36.226Z,88.63
2022-12-26T13:05:16.056Z,88.52
2022-12-26T13:07:49.317Z,88.37
2022-12-26T13:10:22.129Z,88.29
2022-12-26T13:12:51.879Z,88.54
2022-12-26T13:15:30.929Z,88.21
2022-12-26T13:18:03.305Z,88.20
2022-12-26T13:20:39.285Z,88.58
2022-12-26T13:23:36.694Z,88.30
2022-12-26T13:26:12.303Z,88.79
2022-12-26T13:28:53.832Z,88.30
2022-12-26T13:31:22.327Z,88.25
2022-12-26T13:33:50.475Z,88.02
2022-12-26T13:36:43.832Z,88.75
2022-12-26T13:39:34.212Z,88.64
2022-12-26T13:42:24.167Z,88.33
2022-12-26T13:44:53.576Z,88.26
2022-12-26T13:47:36.328Z,88.51
2022-12-26T13:50:41.349Z,88.34
2022-12-26T13:53:29.526Z,88.45
2022-12-26T13:56:00.151Z,88.59
2022-12-26T13:58:51.041Z,88.72
2022-12-26T14:01:31.129Z,88.23
2022-12-26T14:04:18.636Z,88.63
2022-12-26T14:07:02.453Z,88.83
2022-12-26T14:09:43.369Z,88.49
2022-12-26T14:12:35.859Z,88.26
2022-12-26T14:15:18.590Z,88.48
2022-12-26T14:17:59.841Z,88.56
2022-12-26T14:20:41.773Z,88.59
2022-12-26T14:23:24.710Z,88.12
2022-12-26T14:26:03.385Z,88.21
2022-12-26T14:28:51.457Z,88.32
2022-12-26T14:31:25.847Z,88.48
2022-12-26T14:34:00.586Z,88.40
2022-12-26T14:36:39.891Z,88.21
2022-12-26T14:39:20.872Z,88.34
2022-12-26T14:42:55.630Z,88.60
2022-12-26T14:45:43.301Z,88.60
2022-12-26T14:48:47.794Z,88.66
2022-12-26T14:51:34.626Z,88.49
2022-12-26T14:54:38.558Z,88.48
2022-12-26T14:57:52.213Z,88.48
2022-12-26T15:00:34.493Z,88.54
2022-12-26T15:03:42.052Z,88.62
2022-12-26T15:06:46.392Z,88.44
2022-12-26T15:09:42.454Z,88.45
2022-12-26T15:12:45.374Z,88.45
2022-12-26T15:15:35.451Z,88.42
2022-12-26T15:18:31.042Z,88.31
2022-12-26T15:21:29.609Z,88.67
2022-12-26T15:24:15.480Z,88.50
2022-12-26T15:27:08.546Z,88.37
2022-12-26T15:29:53.581Z,88.55
2022-12-26T15:32:26.009Z,88.48
2022-12-26T15:35:03.828Z,88.26
2022-12-26T15:38:13.597Z,88.52
2022-12-26T15:40:45.585Z,88.42
2022-12-26T15:43:45.538Z,88.49
2022-12-26T15:46:21.496Z,88.56
2022-12-26T15:49:16.622Z,88.29
2022-12-26T15:51:56.291Z,88.56
2022-12-26T15:54:56.028Z,88.80
2022-12-26T15:57:35.157Z,88.36
2022-12-26T16:00:13.900Z,88.47
2022-12-26T16:02:48.992Z,88.54
2022-12-26T16:05:48.780Z,88.45
2022-12-26T16:08:35.644Z,88.43
2022-12-26T16:11:21.344Z,88.51
2022-12-26T16:13:59.418Z,88.71
2022-12-26T16:16:34.286Z,88.55
2022-12-26T16:19:18.831Z,88.61
2022-12-26T16:22:08.800Z,88.58
2022-12-26T16:24:38.393Z,88.50
2022-12-26T16:27:09.842Z,88.45
2022-12-26T16:29:45.949Z,88.64
2022-12-26T16:32:18.904Z,88.43
2022-12-26T16:34:48.354Z,88.51
2022-12-26T16:37:20.154Z,88.62
2022-12-26T16:40:06.965Z,88.64
2022-12-26T16:42:37.441Z,88.55
2022-12-26T16:45:19.724Z,88.62
2022-12-26T16:47:48.444Z,88.43
2022-12-26T16:50:18.737Z,88.57
2022-12-26T16:52:47.159Z,88.51
2022-12-26T16:55:27.135Z,88.57
2022-12-26T16:57:59.527Z,88.47
2022-12-26T17:00:27.606Z,88.39
2022-12-26T17:03:00.183Z,88.40
2022-12-26T17:05:30.992Z,88.50
2022-12-26T17:08:01.998Z,88.35
2022-12-26T17:10:32.413Z,88.34
2022-12-26T17:13:04.188Z,88.58
2022-12-26T17:15:35.481Z,88.35
2022-12-26T17:18:37.810Z,88.69
2022-12-26T17:21:27.081Z,88.39
2022-12-26T17:24:34.919Z,88.62
2022-12-26T17:27:16.170Z,88.51
2022-12-26T17:29:55.288Z,88.54
2022-12-26T17:32:44.466Z,88.58
2022-12-26T17:35:15.910Z,88.52
2022-12-26T17:37:44.572Z,88.54
2022-12-26T17:40:23.504Z,88.52
2022-12-26T17:42:53.322Z,88.49
2022-12-26T17:45:25.157Z,88.66
2022-12-26T17:47:54.087Z,88.51
2022-12-26T17:50:22.752Z,88.46
2022-12-26T17:52:51.520Z,88.50
2022-12-26T17:55:24.984Z,88.64
2022-12-26T17:57:53.530Z,88.36
2022-12-26T18:00:26.061Z,88.54
2022-12-26T18:02:54.039Z,88.29
2022-12-26T18:05:22.698Z,88.42
2022-12-26T18:07:52.872Z,88.53
2022-12-26T18:10:22.508Z,88.65
2022-12-26T18:12:51.442Z,88.48
2022-12-26T18:15:20.245Z,88.50
2022-12-26T18:17:51.566Z,88.55
2022-12-26T18:20:21.514Z,88.59
2022-12-26T18:22:49.332Z,88.50
2022-12-26T18:25:18.906Z,88.53
2022-12-26T18:27:47.688Z,88.50
2022-12-26T18:30:17.918Z,88.62
2022-12-26T18:32:46.820Z,88.51
2022-12-26T18:35:16.736Z,88.54
2022-12-26T18:37:47.905Z,88.61
2022-12-26T18:40:28.821Z,88.53
2022-12-26T18:42:56.915Z,88.34
2022-12-26T18:45:25.074Z,88.75
2022-12-26T18:47:53.131Z,88.38
2022-12-26T18:50:22.504Z,88.57
2022-12-26T18:52:53.778Z,88.59
2022-12-26T18:55:22.376Z,88.55
2022-12-26T18:57:50.258Z,88.58
2022-12-26T19:00:19.478Z,88.56
2022-12-26T19:02:48.490Z,88.61
2022-12-26T19:05:19.001Z,88.75
2022-12-26T19:07:50.188Z,88.57
2022-12-26T19:10:20.847Z,88.66
2022-12-26T19:12:48.663Z,88.67
2022-12-26T19:15:16.678Z,88.59
2022-12-26T19:17:44.674Z,88.65
2022-12-26T19:20:19.163Z,88.69
2022-12-26T19:22:50.034Z,88.58
2022-12-26T19:25:19.106Z,88.48
2022-12-26T19:27:48.171Z,88.69
2022-12-26T19:30:17.676Z,88.69
2022-12-26T19:32:45.973Z,88.77
2022-12-26T19:35:15.192Z,88.46
2022-12-26T19:37:43.614Z,88.33
2022-12-26T19:40:18.449Z,88.60
2022-12-26T19:42:49.103Z,88.79
2022-12-26T19:45:17.382Z,88.63
2022-12-26T19:47:45.904Z,88.53
2022-12-26T19:50:14.153Z,88.58
2022-12-26T19:52:42.016Z,88.47
2022-12-26T19:55:13.425Z,88.75
2022-12-26T19:57:41.260Z,89.03
2022-12-26T20:00:11.118Z,88.80
2022-12-26T20:02:39.010Z,88.82
2022-12-26T20:05:07.912Z,88.54
2022-12-26T20:07:36.059Z,88.80
2022-12-26T20:10:04.485Z,88.68
2022-12-26T20:12:33.633Z,88.74
2022-12-26T20:15:01.447Z,88.64
2022-12-26T20:17:29.212Z,88.67
2022-12-26T20:19:56.993Z,88.70
2022-12-26T20:22:24.735Z,88.54
2022-12-26T20:24:53.085Z,88.73
2022-12-26T20:27:20.903Z,88.66
2022-12-26T20:29:50.058Z,88.58
2022-12-26T20:32:17.892Z,88.48
2022-12-26T20:34:45.656Z,88.65
2022-12-26T20:37:13.502Z,88.37
2022-12-26T20:39:41.241Z,88.64
2022-12-26T20:42:09.059Z,88.57
2022-12-26T20:44:41.359Z,88.68
2022-12-26T20:47:10.770Z,88.53
2022-12-26T20:49:38.539Z,88.75
2022-12-26T20:52:06.358Z,88.76
2022-12-26T20:54:34.102Z,88.54
2022-12-26T20:57:02.922Z,88.42
2022-12-26T20:59:30.790Z,88.59
2022-12-26T21:01:58.668Z,88.76
2022-12-26T21:04:27.874Z,88.90
2022-12-26T21:06:56.891Z,89.04
2022-12-26T21:09:25.039Z,88.59
2022-12-26T21:11:52.903Z,88.62
2022-12-26T21:14:22.359Z,88.93
2022-12-26T21:16:52.820Z,88.50
2022-12-26T21:19:22.877Z,88.74
2022-12-26T21:21:54.532Z,88.58
2022-12-26T21:24:24.918Z,88.85
2022-12-26T21:26:53.106Z,88.68
2022-12-26T21:29:23.629Z,88.26
2022-12-26T21:31:53.079Z,88.46
2022-12-26T21:34:23.076Z,88.85
2022-12-26T21:37:10.781Z,88.62
2022-12-26T21:39:39.751Z,88.85
2022-12-26T21:42:08.993Z,88.84
2022-12-26T21:44:37.850Z,88.90
2022-12-26T21:47:08.050Z,88.77
2022-12-26T21:49:36.013Z,88.32
2022-12-26T21:52:06.026Z,88.82
2022-12-26T21:54:52.057Z,88.49
2022-12-26T21:57:19.959Z,88.85
2022-12-26T21:59:57.150Z,88.60
2022-12-26T22:02:47.028Z,88.87
2022-12-26T22:05:15.722Z,88.52
2022-12-26T22:07:45.196Z,89.08
2022-12-26T22:10:34.877Z,88.77
2022-12-26T22:13:02.752Z,88.77
2022-12-26T22:15:48.264Z,88.32
2022-12-26T22:18:17.336Z,88.83
2022-12-26T22:20:46.119Z,88.86
2022-12-26T22:23:15.624Z,88.72
2022-12-26T22:25:43.414Z,88.36
2022-12-26T22:28:11.402Z,88.89
2022-12-26T22:30:39.129Z,88.64
2022-12-26T22:33:06.931Z,88.63
2022-12-26T22:35:35.008Z,88.42
2022-12-26T22:38:03.221Z,88.58
2022-12-26T22:40:32.369Z,88.68
2022-12-26T22:43:00.300Z,88.73
2022-12-26T22:45:28.204Z,88.78
2022-12-26T22:47:56.106Z,88.73
2022-12-26T22:50:24.136Z,88.71
2022-12-26T22:52:52.320Z,88.51
2022-12-26T22:55:20.190Z,88.97
2022-12-26T22:57:52.558Z,88.56
2022-12-26T23:00:21.035Z,88.44
2022-12-26T23:02:48.955Z,89.04
2022-12-26T23:05:17.401Z,89.00
2022-12-26T23:07:45.796Z,88.84
2022-12-26T23:10:19.161Z,88.54
2022-12-26T23:12:51.259Z,88.64
2022-12-26T23:15:21.708Z,88.80
2022-12-26T23:18:27.615Z,88.84
2022-12-26T23:21:13.639Z,88.48
2022-12-26T23:23:42.050Z,88.90
2022-12-26T23:26:11.015Z,88.55
2022-12-26T23:34:29.434Z,88.68
2022-12-26T23:36:57.224Z,88.48
2022-12-26T23:39:24.939Z,88.96
2022-12-26T23:41:52.731Z,88.97
2022-12-26T23:44:22.013Z,88.46
2022-12-26T23:46:49.939Z,88.62
2022-12-26T23:49:18.017Z,88.70
2022-12-26T23:51:45.861Z,88.94
2022-12-26T23:54:13.603Z,89.23
2022-12-26T23:56:41.283Z,88.87
2022-12-26T23:59:09.194Z,88.78
